< < Back
Terminal Aerodrome Forecast


Current Version              Previous Versions:   1  2  3  4  5  6  7  8  9  

Terminal Aerodrome Forecast

290
FTUS44 KBMX 312300
TAFTCL
TAF
KTCL 312320Z 0100/0124 03004KT P6SM SCT050 BKN100
     FM011500 07003KT P6SM BKN150=

Latest METAR

910
SAUS70 KWBC 011100 RRX
MTRTCL
METAR KTCL 011053Z AUTO 36003KT 8SM CLR 21/18 A3002 RMK AO2 SLP164
T02060183


USA.gov is the U.S. government's official web portal to all federal, state and local government web resources and services.